createdAt,value
2023-02-26T00:01:47.296Z,0.56
2023-02-26T00:04:15.926Z,0.56
2023-02-26T00:06:52.790Z,0.55
2023-02-26T00:09:22.216Z,0.55
2023-02-26T00:11:52.487Z,0.55
2023-02-26T00:14:21.952Z,0.55
2023-02-26T00:17:08.098Z,0.55
2023-02-26T00:19:37.088Z,0.58
2023-02-26T00:22:06.443Z,0.60
2023-02-26T00:24:35.065Z,0.63
2023-02-26T00:27:04.835Z,0.64
2023-02-26T00:29:34.014Z,0.65
2023-02-26T00:32:03.442Z,0.66
2023-02-26T00:34:32.554Z,0.70
2023-02-26T00:37:14.162Z,0.71
2023-02-26T00:39:53.537Z,0.70
2023-02-26T00:42:24.381Z,0.67
2023-02-26T00:44:53.601Z,0.63
2023-02-26T00:47:30.893Z,0.58
2023-02-26T00:50:14.177Z,0.54
2023-02-26T00:52:52.774Z,0.48
2023-02-26T00:55:21.082Z,0.44
2023-02-26T00:57:50.695Z,0.40
2023-02-26T01:00:20.676Z,0.36
2023-02-26T01:02:50.904Z,0.35
2023-02-26T01:05:20.425Z,0.34
2023-02-26T01:07:55.248Z,0.32
2023-02-26T01:10:25.065Z,0.32
2023-02-26T01:12:56.714Z,0.29
2023-02-26T01:15:25.800Z,0.30
2023-02-26T01:18:02.201Z,0.29
2023-02-26T01:20:37.805Z,0.30
2023-02-26T01:23:12.156Z,0.32
2023-02-26T01:25:42.718Z,0.32
2023-02-26T01:28:13.068Z,0.30
2023-02-26T01:30:42.398Z,0.32
2023-02-26T01:33:18.330Z,0.33
2023-02-26T01:35:51.768Z,0.34
2023-02-26T01:38:28.846Z,0.34
2023-02-26T01:41:37.397Z,0.31
2023-02-26T01:44:16.499Z,0.29
2023-02-26T01:47:05.590Z,0.30
2023-02-26T01:49:35.927Z,0.30
2023-02-26T01:52:06.331Z,0.32
2023-02-26T01:54:38.079Z,0.33
2023-02-26T01:57:11.923Z,0.34
2023-02-26T01:59:45.421Z,0.34
2023-02-26T02:02:17.462Z,0.36
2023-02-26T02:04:47.079Z,0.37
2023-02-26T02:07:16.350Z,0.36
2023-02-26T02:09:44.956Z,0.37
2023-02-26T02:12:27.707Z,0.37
2023-02-26T02:15:12.619Z,0.39
2023-02-26T02:17:56.030Z,0.42
2023-02-26T02:21:31.087Z,0.42
2023-02-26T02:24:06.364Z,0.43
2023-02-26T02:26:59.004Z,0.43
2023-02-26T02:29:51.342Z,0.45
2023-02-26T02:32:27.278Z,0.47
2023-02-26T02:35:05.007Z,0.49
2023-02-26T02:37:38.774Z,0.48
2023-02-26T02:40:12.251Z,0.45
2023-02-26T02:42:47.067Z,0.39
2023-02-26T02:45:22.219Z,0.34
2023-02-26T02:47:58.190Z,0.27
2023-02-26T02:50:34.657Z,0.21
2023-02-26T02:53:07.997Z,0.15
2023-02-26T02:55:41.742Z,0.09
2023-02-26T02:58:14.527Z,0.05
2023-02-26T03:00:48.880Z,-0.01
2023-02-26T03:03:25.233Z,-0.06
2023-02-26T03:05:54.392Z,-0.10
2023-02-26T03:08:28.884Z,-0.15
2023-02-26T03:10:57.804Z,-0.18
2023-02-26T03:13:27.479Z,-0.23
2023-02-26T03:16:23.813Z,-0.28
2023-02-26T03:19:01.973Z,-0.29
2023-02-26T03:21:40.341Z,-0.29
2023-02-26T03:24:15.549Z,-0.29
2023-02-26T03:26:51.667Z,-0.29
2023-02-26T03:29:30.790Z,-0.30
2023-02-26T03:32:07.024Z,-0.32
2023-02-26T03:34:42.974Z,-0.30
2023-02-26T03:37:20.693Z,-0.30
2023-02-26T03:39:53.660Z,-0.29
2023-02-26T03:42:28.279Z,-0.30
2023-02-26T03:45:06.892Z,-0.29
2023-02-26T03:47:40.126Z,-0.31
2023-02-26T03:50:17.647Z,-0.31
2023-02-26T03:52:53.444Z,-0.32
2023-02-26T03:55:50.415Z,-0.33
2023-02-26T03:58:41.771Z,-0.33
2023-02-26T04:01:39.748Z,-0.35
2023-02-26T04:04:16.077Z,-0.37
2023-02-26T04:06:46.612Z,-0.39
2023-02-26T04:09:16.226Z,-0.41
2023-02-26T04:11:46.353Z,-0.43
2023-02-26T04:14:14.917Z,-0.44
2023-02-26T04:16:46.004Z,-0.47
2023-02-26T04:19:15.369Z,-0.48
2023-02-26T04:21:45.723Z,-0.49
2023-02-26T04:24:16.353Z,-0.51
2023-02-26T04:26:46.430Z,-0.53
2023-02-26T04:29:15.315Z,-0.54
2023-02-26T04:31:43.909Z,-0.56
2023-02-26T04:34:12.634Z,-0.57
2023-02-26T04:36:41.994Z,-0.59
2023-02-26T04:39:12.303Z,-0.60
2023-02-26T04:41:40.936Z,-0.62
2023-02-26T04:44:10.323Z,-0.65
2023-02-26T04:46:42.283Z,-0.66
2023-02-26T04:49:11.568Z,-0.67
2023-02-26T04:51:43.821Z,-0.70
2023-02-26T04:54:16.089Z,-0.71
2023-02-26T04:56:44.792Z,-0.72
2023-02-26T04:59:12.999Z,-0.75
2023-02-26T05:01:42.449Z,-0.76
2023-02-26T05:04:10.934Z,-0.76
2023-02-26T05:06:40.942Z,-0.78
2023-02-26T05:09:09.556Z,-0.80
2023-02-26T05:11:39.480Z,-0.81
2023-02-26T05:14:09.010Z,-0.85
2023-02-26T05:16:37.627Z,-0.88
2023-02-26T05:19:05.897Z,-0.89
2023-02-26T05:21:34.547Z,-0.87
2023-02-26T05:24:03.369Z,-0.83
2023-02-26T05:26:32.036Z,-0.77
2023-02-26T05:29:02.263Z,-0.73
2023-02-26T05:31:30.480Z,-0.68
2023-02-26T05:33:58.738Z,-0.66
2023-02-26T05:36:27.406Z,-0.63
2023-02-26T05:38:56.195Z,-0.62
2023-02-26T05:41:24.970Z,-0.64
2023-02-26T05:43:53.571Z,-0.67
2023-02-26T05:46:23.401Z,-0.72
2023-02-26T05:48:52.146Z,-0.76
2023-02-26T05:51:20.679Z,-0.81
2023-02-26T05:53:49.535Z,-0.85
2023-02-26T05:56:18.058Z,-0.88
2023-02-26T05:58:46.766Z,-0.92
2023-02-26T06:01:15.488Z,-0.94
2023-02-26T06:03:45.108Z,-0.97
2023-02-26T06:06:14.098Z,-0.98
2023-02-26T06:08:42.881Z,-1.00
2023-02-26T06:11:12.516Z,-1.02
2023-02-26T06:13:41.482Z,-1.04
2023-02-26T06:16:10.095Z,-1.05
2023-02-26T06:18:38.721Z,-1.06
2023-02-26T06:21:09.302Z,-1.07
2023-02-26T06:23:37.806Z,-1.08
2023-02-26T06:26:06.902Z,-1.09
2023-02-26T06:28:35.521Z,-1.10
2023-02-26T06:31:04.567Z,-1.11
2023-02-26T06:33:33.160Z,-1.11
2023-02-26T06:36:02.426Z,-1.10
2023-02-26T06:38:32.068Z,-1.09
2023-02-26T06:41:00.636Z,-1.05
2023-02-26T06:43:28.821Z,-0.99
2023-02-26T06:45:59.381Z,-0.96
2023-02-26T06:48:28.602Z,-0.92
2023-02-26T06:50:57.261Z,-0.86
2023-02-26T06:53:25.868Z,-0.82
2023-02-26T06:55:55.598Z,-0.75
2023-02-26T06:58:25.015Z,-0.68
2023-02-26T07:00:53.691Z,-0.58
2023-02-26T07:03:23.127Z,-0.47
2023-02-26T07:05:51.672Z,-0.34
2023-02-26T07:08:20.171Z,-0.22
2023-02-26T07:10:49.509Z,-0.11
2023-02-26T07:13:19.267Z,0.04
2023-02-26T07:15:47.816Z,0.18
2023-02-26T07:18:16.366Z,0.32
2023-02-26T07:20:45.614Z,0.49
2023-02-26T07:23:14.151Z,0.67
2023-02-26T07:25:42.654Z,0.84
2023-02-26T07:28:11.151Z,1.02
2023-02-26T07:30:42.326Z,1.18
2023-02-26T07:33:13.282Z,1.36
2023-02-26T07:35:42.498Z,1.50
2023-02-26T07:38:11.029Z,1.48
2023-02-26T07:40:39.556Z,1.42
2023-02-26T07:43:07.817Z,1.33
2023-02-26T07:45:36.106Z,1.25
2023-02-26T07:48:05.767Z,1.17
2023-02-26T07:50:34.601Z,1.10
2023-02-26T07:53:03.169Z,1.05
2023-02-26T07:55:31.837Z,1.01
2023-02-26T07:58:00.407Z,0.99
2023-02-26T08:00:28.989Z,1.00
2023-02-26T08:02:57.493Z,1.02
2023-02-26T08:05:29.854Z,1.08
2023-02-26T08:07:58.668Z,1.11
2023-02-26T08:10:27.173Z,1.17
2023-02-26T08:12:55.866Z,1.23
2023-02-26T08:15:24.436Z,1.30
2023-02-26T08:17:54.175Z,1.41
2023-02-26T08:20:22.895Z,1.49
2023-02-26T08:22:53.337Z,1.54
2023-02-26T08:25:21.896Z,1.55
2023-02-26T08:27:50.447Z,1.55
2023-02-26T08:30:19.530Z,1.58
2023-02-26T08:32:49.797Z,1.67
2023-02-26T08:35:18.161Z,1.78
2023-02-26T08:37:46.803Z,1.88
2023-02-26T08:40:16.751Z,1.97
2023-02-26T08:42:45.277Z,2.07
2023-02-26T08:45:13.919Z,2.15
2023-02-26T08:47:55.556Z,2.22
2023-02-26T08:50:26.617Z,2.29
2023-02-26T08:52:55.398Z,2.41
2023-02-26T08:55:25.123Z,2.67
2023-02-26T08:57:53.677Z,2.86
2023-02-26T09:00:23.195Z,3.06
2023-02-26T09:02:51.879Z,3.11
2023-02-26T09:05:20.527Z,3.02
2023-02-26T09:07:49.138Z,2.92
2023-02-26T09:10:17.907Z,2.84
2023-02-26T09:12:47.802Z,2.99
2023-02-26T09:15:16.555Z,3.33
2023-02-26T09:17:45.223Z,3.70
2023-02-26T09:20:15.374Z,4.02
2023-02-26T09:22:44.061Z,4.39
2023-02-26T09:25:13.895Z,4.60
2023-02-26T09:27:42.250Z,4.62
2023-02-26T09:30:15.352Z,4.65
2023-02-26T09:32:44.015Z,4.47
2023-02-26T09:35:12.642Z,4.26
2023-02-26T09:37:41.195Z,4.03
2023-02-26T09:40:16.757Z,3.85
2023-02-26T09:43:06.441Z,3.76
2023-02-26T09:45:40.133Z,3.86
2023-02-26T09:48:12.842Z,3.90
2023-02-26T09:50:46.862Z,3.88
2023-02-26T09:53:20.967Z,3.94
2023-02-26T09:55:51.365Z,4.09
2023-02-26T09:58:25.536Z,4.25
2023-02-26T10:01:06.677Z,4.40
2023-02-26T10:03:54.113Z,4.49
2023-02-26T10:06:28.630Z,4.53
2023-02-26T10:09:20.334Z,4.70
2023-02-26T10:11:57.326Z,5.10
2023-02-26T10:14:31.487Z,5.34
2023-02-26T10:17:06.845Z,5.32
2023-02-26T10:19:41.642Z,5.17
2023-02-26T10:22:21.588Z,5.23
2023-02-26T10:24:55.568Z,5.27
2023-02-26T10:27:38.298Z,5.18
2023-02-26T10:30:15.590Z,5.13
2023-02-26T10:32:58.961Z,5.09
2023-02-26T10:35:33.095Z,5.11
2023-02-26T10:38:05.852Z,5.17
2023-02-26T10:40:40.765Z,5.14
2023-02-26T10:43:17.153Z,5.06
2023-02-26T10:46:02.180Z,4.93
2023-02-26T10:48:47.150Z,4.84
2023-02-26T10:51:18.977Z,4.82
2023-02-26T10:53:51.967Z,4.84
2023-02-26T10:56:26.305Z,4.91
2023-02-26T10:58:55.141Z,5.00
2023-02-26T11:01:27.608Z,5.07
2023-02-26T11:04:02.978Z,5.14
2023-02-26T11:06:34.775Z,5.23
2023-02-26T11:09:06.254Z,5.33
2023-02-26T11:11:43.409Z,5.38
2023-02-26T11:14:12.467Z,5.43
2023-02-26T11:16:49.428Z,5.53
2023-02-26T11:19:21.269Z,5.68
2023-02-26T11:21:51.940Z,5.77
2023-02-26T11:24:31.845Z,6.04
2023-02-26T11:27:04.076Z,6.33
2023-02-26T11:29:39.450Z,6.53
2023-02-26T11:32:15.268Z,6.58
2023-02-26T11:34:49.035Z,6.84
2023-02-26T11:37:21.149Z,7.36
2023-02-26T11:39:53.893Z,7.63
2023-02-26T11:42:22.611Z,7.86
2023-02-26T11:44:53.075Z,8.00
2023-02-26T11:47:25.890Z,8.11
2023-02-26T11:49:57.569Z,7.93
2023-02-26T11:52:33.889Z,7.65
2023-02-26T11:55:06.887Z,7.34
2023-02-26T11:57:37.259Z,7.11
2023-02-26T12:00:21.786Z,6.80
2023-02-26T12:02:50.435Z,6.59
2023-02-26T12:05:20.174Z,6.45
2023-02-26T12:07:48.822Z,6.31
2023-02-26T12:10:23.874Z,6.17
2023-02-26T12:13:09.040Z,6.00
2023-02-26T12:15:44.155Z,5.98
2023-02-26T12:18:53.055Z,5.98
2023-02-26T12:21:55.415Z,5.98
2023-02-26T12:25:00.035Z,5.93
2023-02-26T12:27:44.206Z,5.91
2023-02-26T12:30:42.490Z,5.86
2023-02-26T12:33:26.081Z,5.93
2023-02-26T12:36:46.490Z,6.17
2023-02-26T12:39:36.357Z,6.31
2023-02-26T12:42:29.814Z,6.36
2023-02-26T12:45:29.159Z,6.63
2023-02-26T12:48:16.252Z,6.87
2023-02-26T12:51:01.501Z,7.00
2023-02-26T12:53:52.667Z,6.97
2023-02-26T12:57:09.842Z,6.87
2023-02-26T13:00:14.726Z,6.82
2023-02-26T13:03:55.692Z,6.70
2023-02-26T13:07:10.349Z,6.67
2023-02-26T13:10:00.281Z,6.63
2023-02-26T13:12:42.109Z,6.68
2023-02-26T13:15:38.859Z,6.81
2023-02-26T13:18:15.738Z,7.09
2023-02-26T13:20:55.747Z,7.34
2023-02-26T13:23:29.455Z,7.43
2023-02-26T13:26:03.267Z,7.34
2023-02-26T13:28:41.544Z,7.16
2023-02-26T13:31:14.987Z,7.14
2023-02-26T13:33:46.014Z,7.30
2023-02-26T13:36:17.392Z,7.65
2023-02-26T13:39:05.528Z,7.63
2023-02-26T13:41:47.429Z,7.41
2023-02-26T13:44:36.992Z,7.23
2023-02-26T13:47:42.518Z,7.13
2023-02-26T13:50:32.402Z,6.93
2023-02-26T13:53:06.099Z,6.69
2023-02-26T13:55:45.454Z,6.54
2023-02-26T13:58:41.450Z,6.36
2023-02-26T14:01:16.262Z,6.24
2023-02-26T14:03:51.659Z,6.10
2023-02-26T14:06:45.236Z,5.95
2023-02-26T14:09:46.833Z,5.81
2023-02-26T14:12:37.605Z,5.65
2023-02-26T14:15:43.443Z,5.52
2023-02-26T14:18:31.632Z,5.43
2023-02-26T14:21:49.925Z,5.34
2023-02-26T14:24:24.242Z,5.25
2023-02-26T14:27:09.355Z,5.18
2023-02-26T14:29:42.617Z,5.16
2023-02-26T14:32:28.393Z,5.12
2023-02-26T14:35:00.056Z,5.07
2023-02-26T14:37:29.715Z,5.01
2023-02-26T14:40:08.829Z,4.93
2023-02-26T14:42:42.506Z,4.89
2023-02-26T14:45:27.064Z,4.85
2023-02-26T14:47:59.185Z,4.81
2023-02-26T14:50:35.636Z,4.80
2023-02-26T14:53:46.416Z,4.73
2023-02-26T14:56:26.549Z,4.71
2023-02-26T14:59:34.981Z,4.71
2023-02-26T15:02:19.693Z,4.71
2023-02-26T15:05:30.640Z,4.77
2023-02-26T15:08:14.483Z,4.83
2023-02-26T15:11:05.866Z,4.92
2023-02-26T15:14:01.711Z,5.11
2023-02-26T15:16:46.337Z,5.29
2023-02-26T15:19:31.414Z,5.36
2023-02-26T15:22:24.521Z,5.52
2023-02-26T15:24:53.561Z,5.72
2023-02-26T15:27:23.115Z,5.80
2023-02-26T15:29:53.358Z,5.75
2023-02-26T15:32:28.750Z,5.57
2023-02-26T15:35:00.957Z,5.46
2023-02-26T15:37:33.568Z,5.49
2023-02-26T15:40:05.107Z,5.55
2023-02-26T15:42:38.535Z,5.62
2023-02-26T15:45:14.269Z,5.67
2023-02-26T15:47:43.060Z,5.72
2023-02-26T15:50:17.249Z,5.73
2023-02-26T15:52:52.453Z,5.69
2023-02-26T15:55:21.143Z,5.58
2023-02-26T15:57:49.704Z,5.44
2023-02-26T16:00:24.676Z,5.33
2023-02-26T16:02:57.097Z,5.25
2023-02-26T16:05:27.042Z,5.15
2023-02-26T16:07:57.462Z,5.06
2023-02-26T16:10:33.919Z,4.97
2023-02-26T16:13:03.247Z,4.90
2023-02-26T16:15:36.155Z,4.84
2023-02-26T16:18:08.620Z,4.78
2023-02-26T16:20:42.626Z,4.70
2023-02-26T16:23:17.158Z,4.59
2023-02-26T16:25:54.231Z,4.48
2023-02-26T16:28:27.521Z,4.39
2023-02-26T16:30:58.647Z,4.32
2023-02-26T16:33:28.589Z,4.21
2023-02-26T16:36:05.817Z,4.11
2023-02-26T16:38:47.016Z,4.01
2023-02-26T16:41:15.710Z,3.96
2023-02-26T16:43:56.726Z,3.88
2023-02-26T16:46:38.939Z,3.83
2023-02-26T16:49:18.425Z,3.78
2023-02-26T16:51:48.840Z,3.75
2023-02-26T16:54:23.413Z,3.71
2023-02-26T16:57:00.120Z,3.65
2023-02-26T16:59:33.011Z,3.61
2023-02-26T17:02:04.396Z,3.56
2023-02-26T17:04:36.914Z,3.51
2023-02-26T17:07:17.709Z,3.47
2023-02-26T17:09:52.103Z,3.42
2023-02-26T17:12:25.086Z,3.39
2023-02-26T17:14:58.361Z,3.36
2023-02-26T17:17:27.652Z,3.34
2023-02-26T17:19:56.202Z,3.31
2023-02-26T17:22:29.890Z,3.30
2023-02-26T17:24:59.488Z,3.28
2023-02-26T17:27:31.788Z,3.26
2023-02-26T17:30:04.145Z,3.25
2023-02-26T17:32:32.536Z,3.27
2023-02-26T17:35:01.923Z,3.27
2023-02-26T17:37:35.130Z,3.26
2023-02-26T17:40:15.882Z,3.25
2023-02-26T17:42:45.197Z,3.24
2023-02-26T17:45:14.326Z,3.22
2023-02-26T17:47:43.230Z,3.19
2023-02-26T17:50:29.319Z,3.12
2023-02-26T17:52:58.086Z,3.09
2023-02-26T17:55:27.829Z,3.02
2023-02-26T17:57:57.365Z,2.96
2023-02-26T18:00:26.422Z,2.88
2023-02-26T18:02:54.694Z,2.82
2023-02-26T18:05:23.250Z,2.74
2023-02-26T18:07:52.986Z,2.68
2023-02-26T18:10:25.182Z,2.64
2023-02-26T18:12:54.888Z,2.60
2023-02-26T18:15:23.574Z,2.57
2023-02-26T18:17:52.363Z,2.56
2023-02-26T18:20:23.383Z,2.56
2023-02-26T18:22:52.067Z,2.56
2023-02-26T18:25:21.444Z,2.56
2023-02-26T18:27:59.933Z,2.53
2023-02-26T18:30:31.903Z,2.53
2023-02-26T18:33:00.516Z,2.53
2023-02-26T18:35:31.750Z,2.54
2023-02-26T18:38:00.600Z,2.55
2023-02-26T18:40:29.191Z,2.56
2023-02-26T18:42:58.839Z,2.58
2023-02-26T18:45:27.668Z,2.59
2023-02-26T18:47:56.778Z,2.60
2023-02-26T18:50:25.346Z,2.62
2023-02-26T18:52:53.586Z,2.62
2023-02-26T18:55:21.815Z,2.63
2023-02-26T18:57:50.048Z,2.64
2023-02-26T19:00:21.328Z,2.62
2023-02-26T19:02:50.091Z,2.57
2023-02-26T19:05:23.214Z,2.53
2023-02-26T19:07:52.100Z,2.50
2023-02-26T19:10:21.505Z,2.46
2023-02-26T19:12:50.782Z,2.41
2023-02-26T19:15:20.658Z,2.35
2023-02-26T19:17:49.266Z,2.28
2023-02-26T19:20:18.005Z,2.18
2023-02-26T19:22:47.090Z,2.10
2023-02-26T19:25:15.900Z,2.02
2023-02-26T19:27:44.456Z,1.98
2023-02-26T19:30:13.951Z,1.92
2023-02-26T19:32:43.705Z,1.89
2023-02-26T19:35:11.943Z,1.83
2023-02-26T19:37:40.607Z,1.77
2023-02-26T19:40:16.091Z,1.70
2023-02-26T19:42:45.264Z,1.64
2023-02-26T19:45:14.222Z,1.59
2023-02-26T19:47:44.005Z,1.56
2023-02-26T19:50:14.005Z,1.53
2023-02-26T19:52:42.911Z,1.49
2023-02-26T19:55:12.119Z,1.46
2023-02-26T19:57:40.929Z,1.43
2023-02-26T20:00:11.080Z,1.42
2023-02-26T20:02:43.576Z,1.38
2023-02-26T20:05:16.776Z,1.35
2023-02-26T20:07:45.693Z,1.32
2023-02-26T20:10:15.628Z,1.29
2023-02-26T20:12:44.712Z,1.26
2023-02-26T20:15:13.950Z,1.23
2023-02-26T20:17:43.712Z,1.19
2023-02-26T20:20:13.069Z,1.16
2023-02-26T20:22:41.718Z,1.12
2023-02-26T20:25:10.805Z,1.08
2023-02-26T20:27:39.409Z,1.04
2023-02-26T20:30:10.022Z,0.99
2023-02-26T20:32:38.737Z,0.95
2023-02-26T20:35:09.608Z,0.90
2023-02-26T20:37:38.210Z,0.86
2023-02-26T20:40:09.438Z,0.82
2023-02-26T20:42:38.175Z,0.80
2023-02-26T20:45:08.036Z,0.76
2023-02-26T20:47:36.489Z,0.72
2023-02-26T20:50:05.252Z,0.69
2023-02-26T20:52:34.884Z,0.66
2023-02-26T20:55:03.448Z,0.63
2023-02-26T20:57:32.523Z,0.57
2023-02-26T21:00:06.124Z,0.53
2023-02-26T21:02:34.736Z,0.48
2023-02-26T21:05:03.234Z,0.42
2023-02-26T21:07:31.708Z,0.36
2023-02-26T21:10:01.454Z,0.32
2023-02-26T21:12:30.867Z,0.26
2023-02-26T21:14:59.422Z,0.22
2023-02-26T21:17:28.338Z,0.17
2023-02-26T21:19:57.468Z,0.13
2023-02-26T21:22:26.102Z,0.11
2023-02-26T21:24:54.293Z,0.08
2023-02-26T21:27:23.837Z,0.04
2023-02-26T21:29:52.322Z,0.00
2023-02-26T21:32:20.727Z,-0.04
2023-02-26T21:34:49.226Z,-0.07
2023-02-26T21:37:18.237Z,-0.11
2023-02-26T21:39:48.064Z,-0.14
2023-02-26T21:42:16.627Z,-0.16
2023-02-26T21:44:47.989Z,-0.20
2023-02-26T21:47:17.238Z,-0.23
2023-02-26T21:49:46.441Z,-0.26
2023-02-26T21:52:15.142Z,-0.29
2023-02-26T21:54:43.658Z,-0.33
2023-02-26T21:57:12.328Z,-0.35
2023-02-26T21:59:40.832Z,-0.37
2023-02-26T22:02:13.077Z,-0.41
2023-02-26T22:04:42.028Z,-0.44
2023-02-26T22:07:10.328Z,-0.46
2023-02-26T22:09:39.052Z,-0.50
2023-02-26T22:12:08.413Z,-0.53
2023-02-26T22:14:37.303Z,-0.56
2023-02-26T22:17:05.834Z,-0.57
2023-02-26T22:19:35.694Z,-0.57
2023-02-26T22:22:03.967Z,-0.60
2023-02-26T22:24:32.531Z,-0.62
2023-02-26T22:27:01.121Z,-0.66
2023-02-26T22:29:29.712Z,-0.70
2023-02-26T22:31:58.288Z,-0.73
2023-02-26T22:34:27.369Z,-0.76
2023-02-26T22:36:56.921Z,-0.79
2023-02-26T22:39:25.477Z,-0.82
2023-02-26T22:41:54.006Z,-0.83
2023-02-26T22:44:22.547Z,-0.86
2023-02-26T22:46:51.173Z,-0.88
2023-02-26T22:49:20.627Z,-0.92
2023-02-26T22:51:49.188Z,-0.95
2023-02-26T22:54:18.785Z,-0.97
2023-02-26T22:56:47.297Z,-0.99
2023-02-26T22:59:16.003Z,-0.99
2023-02-26T23:01:44.283Z,-1.01
2023-02-26T23:04:13.111Z,-1.02
2023-02-26T23:06:41.637Z,-1.02
2023-02-26T23:09:10.241Z,-1.03
2023-02-26T23:11:39.889Z,-1.04
2023-02-26T23:14:08.599Z,-1.06
2023-02-26T23:16:37.106Z,-1.05
2023-02-26T23:19:06.037Z,-1.06
2023-02-26T23:21:34.789Z,-1.05
2023-02-26T23:24:03.087Z,-1.04
2023-02-26T23:26:31.790Z,-1.05
2023-02-26T23:29:01.741Z,-1.04
2023-02-26T23:31:30.791Z,-1.04
2023-02-26T23:33:59.535Z,-1.05
2023-02-26T23:36:27.833Z,-1.06
2023-02-26T23:38:56.330Z,-1.05
2023-02-26T23:41:25.126Z,-1.06
2023-02-26T23:43:53.466Z,-1.07
2023-02-26T23:46:23.209Z,-1.08
2023-02-26T23:48:51.887Z,-1.08
2023-02-26T23:51:20.363Z,-1.09
2023-02-26T23:53:48.889Z,-1.09
2023-02-26T23:56:17.619Z,-1.12
2023-02-26T23:58:46.170Z,-1.14
